createdAt,value
2023-03-28T00:00:08.848Z,0.00
2023-03-28T00:01:08.852Z,0.00
2023-03-28T00:02:08.854Z,0.00
2023-03-28T00:03:08.876Z,0.00
2023-03-28T00:04:08.864Z,0.00
2023-03-28T00:05:08.807Z,0.00
2023-03-28T00:06:08.873Z,0.00
2023-03-28T00:07:08.775Z,0.00
2023-03-28T00:08:08.794Z,0.00
2023-03-28T00:09:08.769Z,0.00
2023-03-28T00:10:08.736Z,0.00
2023-03-28T00:11:08.731Z,0.00
2023-03-28T00:12:08.726Z,0.00
2023-03-28T00:13:08.709Z,0.00
2023-03-28T00:14:08.723Z,0.00
2023-03-28T00:15:08.688Z,0.00
2023-03-28T00:16:08.817Z,0.00
2023-03-28T00:17:08.671Z,0.00
2023-03-28T00:18:08.653Z,0.00
2023-03-28T00:19:08.650Z,0.00
2023-03-28T00:20:08.856Z,0.00
2023-03-28T00:21:08.626Z,0.00
2023-03-28T00:22:08.625Z,0.00
2023-03-28T00:23:08.629Z,0.00
2023-03-28T00:24:08.619Z,0.00
2023-03-28T00:25:08.607Z,0.00
2023-03-28T00:26:08.572Z,0.00
2023-03-28T00:27:08.559Z,0.00
2023-03-28T00:28:08.568Z,0.00
2023-03-28T00:29:08.558Z,0.00
2023-03-28T00:30:08.530Z,0.00
2023-03-28T00:31:08.568Z,0.00
2023-03-28T00:32:08.518Z,0.00
2023-03-28T00:33:08.552Z,0.00
2023-03-28T00:34:08.520Z,0.00
2023-03-28T00:35:08.468Z,0.00
2023-03-28T00:36:08.490Z,0.00
2023-03-28T00:37:08.472Z,0.00
2023-03-28T00:38:08.439Z,0.00
2023-03-28T00:39:08.451Z,0.00
2023-03-28T00:40:08.426Z,0.00
2023-03-28T00:41:08.403Z,0.00
2023-03-28T00:42:08.403Z,0.00
2023-03-28T00:43:08.379Z,0.00
2023-03-28T00:44:08.398Z,0.00
2023-03-28T00:45:08.366Z,0.00
2023-03-28T00:46:09.328Z,0.00
2023-03-28T00:47:08.423Z,0.00
2023-03-28T00:48:14.682Z,0.00
2023-03-28T00:49:08.345Z,0.00
2023-03-28T00:50:08.314Z,0.00
2023-03-28T00:51:08.298Z,0.00
2023-03-28T00:52:08.289Z,0.00
2023-03-28T00:53:08.273Z,0.00
2023-03-28T00:54:08.269Z,0.00
2023-03-28T00:55:08.271Z,0.00
2023-03-28T00:56:08.248Z,0.00
2023-03-28T00:57:08.324Z,0.00
2023-03-28T00:58:08.221Z,0.00
2023-03-28T00:59:08.236Z,0.00
2023-03-28T01:00:08.198Z,0.00
2023-03-28T01:01:08.192Z,0.00
2023-03-28T01:02:08.267Z,0.00
2023-03-28T01:03:08.282Z,0.00
2023-03-28T01:04:08.176Z,0.00
2023-03-28T01:05:08.145Z,0.00
2023-03-28T01:06:08.143Z,0.00
2023-03-28T01:07:08.145Z,0.00
2023-03-28T01:08:08.118Z,0.00
2023-03-28T01:09:08.099Z,0.00
2023-03-28T01:10:08.094Z,0.00
2023-03-28T01:11:08.076Z,0.00
2023-03-28T01:12:08.085Z,0.00
2023-03-28T01:13:08.050Z,0.00
2023-03-28T01:14:08.044Z,0.00
2023-03-28T01:15:08.031Z,0.00
2023-03-28T01:16:08.069Z,0.00
2023-03-28T01:17:08.054Z,0.00
2023-03-28T01:18:08.038Z,0.00
2023-03-28T01:19:07.984Z,0.00
2023-03-28T01:20:07.980Z,0.00
2023-03-28T01:21:07.994Z,0.00
2023-03-28T01:22:07.980Z,0.00
2023-03-28T01:23:07.945Z,0.00
2023-03-28T01:24:10.833Z,0.00
2023-03-28T01:25:07.921Z,0.00
2023-03-28T01:26:07.916Z,0.00
2023-03-28T01:27:07.924Z,0.00
2023-03-28T01:28:07.884Z,0.00
2023-03-28T01:29:07.878Z,0.00
2023-03-28T01:30:07.883Z,0.00
2023-03-28T01:31:07.893Z,0.00
2023-03-28T01:32:07.870Z,0.00
2023-03-28T01:33:07.879Z,0.00
2023-03-28T01:34:07.840Z,0.00
2023-03-28T01:35:07.812Z,0.00
2023-03-28T01:36:07.852Z,0.00
2023-03-28T01:37:07.789Z,0.00
2023-03-28T01:38:07.806Z,0.00
2023-03-28T01:39:07.778Z,0.00
2023-03-28T01:40:07.776Z,0.00
2023-03-28T01:41:07.749Z,0.00
2023-03-28T01:42:07.739Z,0.00
2023-03-28T01:43:07.744Z,0.00
2023-03-28T01:44:07.721Z,0.00
2023-03-28T01:45:07.713Z,0.00
2023-03-28T01:46:07.743Z,0.00
2023-03-28T01:47:07.688Z,0.00
2023-03-28T01:48:07.771Z,0.00
2023-03-28T01:49:07.670Z,0.00
2023-03-28T01:50:07.657Z,0.00
2023-03-28T01:51:07.645Z,0.00
2023-03-28T01:52:07.676Z,0.00
2023-03-28T01:53:07.613Z,0.00
2023-03-28T01:54:07.608Z,0.00
2023-03-28T01:55:07.592Z,0.00
2023-03-28T01:56:07.595Z,0.00
2023-03-28T01:57:07.606Z,0.00
2023-03-28T01:58:07.586Z,0.00
2023-03-28T01:59:07.566Z,0.00
2023-03-28T02:00:07.539Z,0.00
2023-03-28T02:01:07.549Z,0.00
2023-03-28T02:02:07.584Z,0.00
2023-03-28T02:03:07.679Z,0.00
2023-03-28T02:04:20.225Z,0.00
2023-03-28T02:05:07.494Z,0.00
2023-03-28T02:06:07.484Z,0.00
2023-03-28T02:07:07.467Z,0.00
2023-03-28T02:08:07.481Z,0.00
2023-03-28T02:09:07.445Z,0.00
2023-03-28T02:10:07.435Z,0.00
2023-03-28T02:11:07.438Z,0.00
2023-03-28T02:12:07.416Z,0.00
2023-03-28T02:13:07.425Z,0.00
2023-03-28T02:14:07.426Z,0.00
2023-03-28T02:15:07.382Z,0.00
2023-03-28T02:16:07.421Z,0.00
2023-03-28T02:17:07.370Z,0.00
2023-03-28T02:18:07.366Z,0.00
2023-03-28T02:19:07.368Z,0.00
2023-03-28T02:20:07.333Z,0.00
2023-03-28T02:21:07.325Z,0.00
2023-03-28T02:22:07.324Z,0.00
2023-03-28T02:23:07.304Z,0.00
2023-03-28T02:24:07.318Z,0.00
2023-03-28T02:25:07.277Z,0.00
2023-03-28T02:26:07.272Z,0.00
2023-03-28T02:27:07.260Z,0.00
2023-03-28T02:28:07.255Z,0.00
2023-03-28T02:29:07.264Z,0.00
2023-03-28T02:30:07.254Z,0.00
2023-03-28T02:31:07.233Z,0.00
2023-03-28T02:32:07.217Z,0.00
2023-03-28T02:33:07.225Z,0.00
2023-03-28T02:34:07.189Z,0.00
2023-03-28T02:35:07.196Z,0.00
2023-03-28T02:36:07.236Z,0.00
2023-03-28T02:37:07.153Z,0.00
2023-03-28T02:38:07.141Z,0.00
2023-03-28T02:39:07.125Z,0.00
2023-03-28T02:40:07.138Z,0.00
2023-03-28T02:41:07.109Z,0.00
2023-03-28T02:42:07.131Z,0.00
2023-03-28T02:43:07.087Z,0.00
2023-03-28T02:44:07.078Z,0.00
2023-03-28T02:45:07.071Z,0.00
2023-03-28T02:46:07.101Z,0.00
2023-03-28T02:47:07.081Z,0.00
2023-03-28T02:48:07.049Z,0.00
2023-03-28T02:49:07.036Z,0.00
2023-03-28T02:50:07.024Z,0.00
2023-03-28T02:51:07.000Z,0.00
2023-03-28T02:52:06.994Z,0.00
2023-03-28T02:53:07.003Z,0.00
2023-03-28T02:54:06.975Z,0.00
2023-03-28T02:55:06.967Z,0.00
2023-03-28T02:56:06.956Z,0.00
2023-03-28T02:57:06.968Z,0.00
2023-03-28T02:58:06.953Z,0.00
2023-03-28T02:59:06.938Z,0.00
2023-03-28T03:00:06.910Z,0.00
2023-03-28T03:01:06.942Z,0.00
2023-03-28T03:02:06.895Z,0.00
2023-03-28T03:03:06.928Z,0.00
2023-03-28T03:04:06.978Z,0.00
2023-03-28T03:05:06.857Z,0.00
2023-03-28T03:06:06.845Z,0.00
2023-03-28T03:07:06.831Z,0.00
2023-03-28T03:08:06.857Z,0.00
2023-03-28T03:09:06.822Z,0.00
2023-03-28T03:10:06.816Z,0.00
2023-03-28T03:11:06.795Z,0.00
2023-03-28T03:12:06.781Z,0.00
2023-03-28T03:13:06.792Z,0.00
2023-03-28T03:14:06.757Z,0.00
2023-03-28T03:15:06.751Z,0.00
2023-03-28T03:16:06.802Z,0.00
2023-03-28T03:17:06.758Z,0.00
2023-03-28T03:18:06.785Z,0.00
2023-03-28T03:19:06.704Z,0.00
2023-03-28T03:20:06.702Z,0.00
2023-03-28T03:21:06.679Z,0.00
2023-03-28T03:22:06.670Z,0.00
2023-03-28T03:23:06.691Z,0.00
2023-03-28T03:24:06.643Z,0.00
2023-03-28T03:25:06.737Z,0.00
2023-03-28T03:26:06.626Z,0.00
2023-03-28T03:27:06.617Z,0.00
2023-03-28T03:28:06.628Z,0.00
2023-03-28T03:29:06.600Z,0.00
2023-03-28T03:30:06.600Z,0.00
2023-03-28T03:31:06.634Z,0.00
2023-03-28T03:32:06.568Z,0.00
2023-03-28T03:33:06.603Z,0.00
2023-03-28T03:34:06.565Z,0.00
2023-03-28T03:35:06.540Z,0.00
2023-03-28T03:36:06.584Z,0.00
2023-03-28T03:37:06.517Z,0.00
2023-03-28T03:38:06.493Z,0.00
2023-03-28T03:39:06.514Z,0.00
2023-03-28T03:40:06.481Z,0.00
2023-03-28T03:41:06.474Z,0.00
2023-03-28T03:42:06.453Z,0.00
2023-03-28T03:43:06.445Z,0.00
2023-03-28T03:44:06.431Z,0.00
2023-03-28T03:45:06.451Z,0.00
2023-03-28T03:46:06.442Z,0.00
2023-03-28T03:47:06.405Z,0.00
2023-03-28T03:48:06.433Z,0.00
2023-03-28T03:49:06.376Z,0.00
2023-03-28T03:50:06.393Z,0.00
2023-03-28T03:51:06.356Z,0.00
2023-03-28T03:52:06.358Z,0.00
2023-03-28T03:53:06.366Z,0.00
2023-03-28T03:54:06.323Z,0.00
2023-03-28T03:55:06.324Z,0.00
2023-03-28T03:56:06.315Z,0.00
2023-03-28T03:57:06.315Z,0.00
2023-03-28T03:58:06.285Z,0.00
2023-03-28T03:59:06.301Z,0.00
2023-03-28T04:00:06.260Z,0.00
2023-03-28T04:01:06.247Z,0.00
2023-03-28T04:02:06.292Z,0.00
2023-03-28T04:03:06.246Z,0.00
2023-03-28T04:04:06.243Z,0.00
2023-03-28T04:05:06.232Z,0.00
2023-03-28T04:06:06.228Z,0.00
2023-03-28T04:07:06.187Z,0.00
2023-03-28T04:08:06.182Z,0.00
2023-03-28T04:09:06.172Z,0.00
2023-03-28T04:10:06.180Z,0.00
2023-03-28T04:11:06.166Z,0.00
2023-03-28T04:12:06.141Z,0.00
2023-03-28T04:13:06.124Z,0.00
2023-03-28T04:14:06.106Z,0.00
2023-03-28T04:15:06.118Z,0.00
2023-03-28T04:16:06.089Z,0.00
2023-03-28T04:17:06.088Z,0.00
2023-03-28T04:18:08.316Z,0.00
2023-03-28T04:19:06.057Z,0.00
2023-03-28T04:20:06.082Z,0.00
2023-03-28T04:21:06.039Z,0.00
2023-03-28T04:22:06.027Z,0.00
2023-03-28T04:23:06.226Z,0.00
2023-03-28T04:24:05.996Z,0.00
2023-03-28T04:25:06.012Z,0.00
2023-03-28T04:26:06.000Z,0.00
2023-03-28T04:27:05.970Z,0.00
2023-03-28T04:28:06.004Z,0.00
2023-03-28T04:29:05.996Z,0.00
2023-03-28T04:30:05.950Z,0.00
2023-03-28T04:31:05.962Z,0.00
2023-03-28T04:32:05.991Z,0.00
2023-03-28T04:33:05.928Z,0.00
2023-03-28T04:34:05.902Z,0.00
2023-03-28T04:35:05.894Z,0.00
2023-03-28T04:36:06.033Z,0.00
2023-03-28T04:37:05.873Z,0.00
2023-03-28T04:38:05.858Z,0.00
2023-03-28T04:39:05.856Z,0.00
2023-03-28T04:40:05.830Z,0.00
2023-03-28T04:41:05.893Z,0.00
2023-03-28T04:42:05.859Z,0.00
2023-03-28T04:43:05.979Z,0.00
2023-03-28T04:44:05.913Z,0.00
2023-03-28T04:45:05.794Z,0.00
2023-03-28T04:46:05.823Z,4.00
2023-03-28T04:47:05.793Z,0.00
2023-03-28T04:48:05.868Z,4.00
2023-03-28T04:49:05.745Z,0.00
2023-03-28T04:50:05.738Z,4.00
2023-03-28T04:51:05.725Z,4.00
2023-03-28T04:52:05.719Z,8.00
2023-03-28T04:53:05.758Z,8.00
2023-03-28T04:54:05.694Z,12.00
2023-03-28T04:55:05.766Z,8.00
2023-03-28T04:56:05.704Z,12.00
2023-03-28T04:57:05.788Z,12.00
2023-03-28T04:58:05.654Z,16.00
2023-03-28T04:59:05.685Z,20.00
2023-03-28T05:00:05.621Z,24.00
2023-03-28T05:01:05.671Z,28.00
2023-03-28T05:02:05.670Z,32.00
2023-03-28T05:03:05.849Z,40.00
2023-03-28T05:04:05.621Z,44.00
2023-03-28T05:05:05.593Z,56.00
2023-03-28T05:06:05.608Z,60.00
2023-03-28T05:07:05.551Z,72.00
2023-03-28T05:08:05.641Z,80.00
2023-03-28T05:09:05.611Z,92.00
2023-03-28T05:10:05.578Z,104.00
2023-03-28T05:11:05.553Z,120.00
2023-03-28T05:12:05.496Z,136.00
2023-03-28T05:13:05.485Z,148.00
2023-03-28T05:14:05.615Z,168.00
2023-03-28T05:15:05.487Z,184.00
2023-03-28T05:16:05.506Z,208.00
2023-03-28T05:17:05.587Z,228.00
2023-03-28T05:18:05.496Z,248.00
2023-03-28T05:19:05.485Z,272.00
2023-03-28T05:20:05.453Z,300.00
2023-03-28T05:21:05.448Z,324.00
2023-03-28T05:22:05.405Z,348.00
2023-03-28T05:23:05.394Z,372.00
2023-03-28T05:24:05.748Z,400.00
2023-03-28T05:25:05.420Z,428.00
2023-03-28T05:26:05.592Z,456.00
2023-03-28T05:27:05.516Z,492.00
2023-03-28T05:28:05.335Z,520.00
2023-03-28T05:29:05.529Z,552.00
2023-03-28T05:30:05.457Z,580.00
2023-03-28T05:31:05.474Z,608.00
2023-03-28T05:32:05.487Z,640.00
2023-03-28T05:33:05.341Z,668.00
2023-03-28T05:34:05.268Z,704.00
2023-03-28T05:35:05.293Z,732.00
2023-03-28T05:36:05.342Z,768.00
2023-03-28T05:37:05.247Z,796.00
2023-03-28T05:38:05.242Z,828.00
2023-03-28T05:39:05.247Z,860.00
2023-03-28T05:40:05.237Z,896.00
2023-03-28T05:41:05.249Z,944.00
2023-03-28T05:42:05.496Z,992.00
2023-03-28T05:43:05.213Z,1032.00
2023-03-28T05:44:05.198Z,1072.00
2023-03-28T05:45:05.212Z,1100.00
2023-03-28T05:46:05.194Z,1116.00
2023-03-28T05:47:05.152Z,1128.00
2023-03-28T05:48:05.124Z,1152.00
2023-03-28T05:49:05.392Z,1176.00
2023-03-28T05:50:05.149Z,1200.00
2023-03-28T05:51:05.104Z,1224.00
2023-03-28T05:52:05.090Z,1252.00
2023-03-28T05:53:05.056Z,1280.00
2023-03-28T05:54:05.150Z,1308.00
2023-03-28T05:55:05.042Z,1376.00
2023-03-28T05:56:05.156Z,1448.00
2023-03-28T05:57:05.079Z,1504.00
2023-03-28T05:58:05.063Z,1476.00
2023-03-28T05:59:04.996Z,1452.00
2023-03-28T06:00:05.122Z,1456.00
2023-03-28T06:01:05.011Z,1492.00
2023-03-28T06:02:04.980Z,1516.00
2023-03-28T06:03:05.059Z,1560.00
2023-03-28T06:04:04.984Z,1608.00
2023-03-28T06:05:05.007Z,1676.00
2023-03-28T06:06:04.955Z,1712.00
2023-03-28T06:07:04.916Z,1724.00
2023-03-28T06:08:04.883Z,1716.00
2023-03-28T06:09:04.884Z,1700.00
2023-03-28T06:10:04.867Z,1700.00
2023-03-28T06:11:04.886Z,1720.00
2023-03-28T06:12:04.844Z,1740.00
2023-03-28T06:13:04.831Z,1792.00
2023-03-28T06:14:04.818Z,1860.00
2023-03-28T06:15:04.819Z,1912.00
2023-03-28T06:16:04.816Z,1940.00
2023-03-28T06:17:04.810Z,1984.00
2023-03-28T06:18:04.820Z,2044.00
2023-03-28T06:19:17.135Z,2140.00
2023-03-28T06:20:04.794Z,2268.00
2023-03-28T06:21:04.779Z,2456.00
2023-03-28T06:22:04.737Z,2716.00
2023-03-28T06:23:04.719Z,2948.00
2023-03-28T06:24:04.706Z,3088.00
2023-03-28T06:25:04.705Z,3124.00
2023-03-28T06:26:04.692Z,3164.00
2023-03-28T06:27:04.705Z,3216.00
2023-03-28T06:28:04.670Z,3260.00
2023-03-28T06:29:04.679Z,3320.00
2023-03-28T06:30:04.728Z,3376.00
2023-03-28T06:31:04.686Z,3464.00
2023-03-28T06:32:04.623Z,3572.00
2023-03-28T06:33:04.685Z,3624.00
2023-03-28T06:34:04.606Z,3540.00
2023-03-28T06:35:04.627Z,3336.00
2023-03-28T06:36:04.679Z,3088.00
2023-03-28T06:37:04.581Z,2860.00
2023-03-28T06:38:04.636Z,2776.00
2023-03-28T06:39:04.566Z,2672.00
2023-03-28T06:40:04.553Z,2452.00
2023-03-28T06:41:04.553Z,2328.00
2023-03-28T06:42:04.528Z,2232.00
2023-03-28T06:43:04.515Z,2196.00
2023-03-28T06:44:04.524Z,2200.00
2023-03-28T06:45:04.497Z,2176.00
2023-03-28T06:46:04.478Z,2180.00
2023-03-28T06:47:04.491Z,2192.00
2023-03-28T06:48:04.527Z,2200.00
2023-03-28T06:49:04.465Z,2216.00
2023-03-28T06:50:04.469Z,2216.00
2023-03-28T06:51:04.426Z,2300.00
2023-03-28T06:52:04.417Z,2304.00
2023-03-28T06:53:05.351Z,2308.00
2023-03-28T06:54:04.397Z,2312.00
2023-03-28T06:55:04.406Z,2284.00
2023-03-28T06:56:04.424Z,2284.00
2023-03-28T06:57:04.423Z,2360.00
2023-03-28T06:58:04.346Z,2372.00
2023-03-28T06:59:04.341Z,2388.00
2023-03-28T07:00:04.365Z,2404.00
2023-03-28T07:01:04.325Z,2424.00
2023-03-28T07:02:04.402Z,2444.00
2023-03-28T07:03:04.459Z,2464.00
2023-03-28T07:04:04.394Z,2484.00
2023-03-28T07:05:04.286Z,2508.00
2023-03-28T07:06:04.351Z,2532.00
2023-03-28T07:07:04.277Z,2556.00
2023-03-28T07:08:04.237Z,2568.00
2023-03-28T07:09:06.475Z,2580.00
2023-03-28T07:10:04.237Z,2596.00
2023-03-28T07:11:04.219Z,2608.00
2023-03-28T07:12:04.244Z,2628.00
2023-03-28T07:13:04.193Z,2644.00
2023-03-28T07:14:04.176Z,2676.00
2023-03-28T07:15:04.171Z,2724.00
2023-03-28T07:16:04.284Z,2800.00
2023-03-28T07:17:04.171Z,2876.00
2023-03-28T07:18:04.165Z,2952.00
2023-03-28T07:19:04.122Z,3020.00
2023-03-28T07:20:04.116Z,3088.00
2023-03-28T07:21:04.638Z,3188.00
2023-03-28T07:22:04.091Z,3320.00
2023-03-28T07:23:04.108Z,3460.00
2023-03-28T07:24:04.073Z,3588.00
2023-03-28T07:25:04.070Z,3804.00
2023-03-28T07:26:04.055Z,4040.00
2023-03-28T07:27:14.594Z,4184.00
2023-03-28T07:28:04.027Z,4312.00
2023-03-28T07:29:04.041Z,4328.00
2023-03-28T07:30:04.003Z,4252.00
2023-03-28T07:31:03.993Z,4208.00
2023-03-28T07:32:03.988Z,4204.00
2023-03-28T07:33:15.247Z,4296.00
2023-03-28T07:34:04.025Z,4436.00
2023-03-28T07:35:03.973Z,4484.00
2023-03-28T07:36:03.980Z,4712.00
2023-03-28T07:37:03.928Z,5048.00
2023-03-28T07:38:03.917Z,5368.00
2023-03-28T07:39:03.911Z,5636.00
2023-03-28T07:40:03.914Z,5872.00
2023-03-28T07:41:03.887Z,6048.00
2023-03-28T07:42:03.876Z,6048.00
2023-03-28T07:43:03.877Z,6012.00
2023-03-28T07:44:03.854Z,6256.00
2023-03-28T07:45:03.844Z,6488.00
2023-03-28T07:46:03.917Z,6732.00
2023-03-28T07:47:03.814Z,6776.00
2023-03-28T07:48:03.855Z,6452.00
2023-03-28T07:49:03.796Z,6132.00
2023-03-28T07:50:03.796Z,5996.00
2023-03-28T07:51:03.813Z,5824.00
2023-03-28T07:52:03.790Z,5848.00
2023-03-28T07:53:03.752Z,5916.00
2023-03-28T07:54:03.748Z,6248.00
2023-03-28T07:55:03.731Z,6584.00
2023-03-28T07:56:03.720Z,6884.00
2023-03-28T07:57:03.746Z,7260.00
2023-03-28T07:58:03.723Z,7488.00
2023-03-28T07:59:03.700Z,7720.00
2023-03-28T08:00:03.687Z,8040.00
2023-03-28T08:01:03.666Z,8272.00
2023-03-28T08:02:03.662Z,8524.00
2023-03-28T08:03:03.706Z,8484.00
2023-03-28T08:04:03.892Z,8472.00
2023-03-28T08:05:03.653Z,8696.00
2023-03-28T08:06:03.605Z,8804.00
2023-03-28T08:07:03.614Z,8560.00
2023-03-28T08:08:03.592Z,8200.00
2023-03-28T08:09:03.600Z,7828.00
2023-03-28T08:10:03.597Z,7468.00
2023-03-28T08:11:03.567Z,7052.00
2023-03-28T08:12:03.557Z,6780.00
2023-03-28T08:13:03.537Z,6652.00
2023-03-28T08:14:03.536Z,6932.00
2023-03-28T08:15:03.539Z,7228.00
2023-03-28T08:16:03.538Z,7376.00
2023-03-28T08:17:03.503Z,7224.00
2023-03-28T08:18:03.575Z,7172.00
2023-03-28T08:19:11.165Z,7396.00
2023-03-28T08:20:03.467Z,8016.00
2023-03-28T08:21:03.842Z,8588.00
2023-03-28T08:22:03.465Z,8536.00
2023-03-28T08:23:03.441Z,8368.00
2023-03-28T08:24:03.437Z,8508.00
2023-03-28T08:25:03.420Z,9168.00
2023-03-28T08:26:03.412Z,9144.00
2023-03-28T08:27:03.402Z,8584.00
2023-03-28T08:28:03.377Z,7976.00
2023-03-28T08:29:03.367Z,7616.00
2023-03-28T08:30:03.351Z,7392.00
2023-03-28T08:31:03.706Z,7376.00
2023-03-28T08:32:03.376Z,7292.00
2023-03-28T08:33:03.352Z,7428.00
2023-03-28T08:34:03.340Z,7368.00
2023-03-28T08:35:03.299Z,7580.00
2023-03-28T08:36:03.329Z,7676.00
2023-03-28T08:37:03.285Z,7688.00
2023-03-28T08:38:03.289Z,7584.00
2023-03-28T08:39:03.257Z,7552.00
2023-03-28T08:40:03.258Z,7412.00
2023-03-28T08:41:03.261Z,6820.00
2023-03-28T08:42:03.219Z,6888.00
2023-03-28T08:43:03.229Z,6640.00
2023-03-28T08:44:03.195Z,6400.00
2023-03-28T08:45:03.191Z,6192.00
2023-03-28T08:46:03.242Z,5952.00
2023-03-28T08:47:03.200Z,5848.00
2023-03-28T08:48:03.231Z,5984.00
2023-03-28T08:49:03.148Z,6264.00
2023-03-28T08:50:03.137Z,6412.00
2023-03-28T08:51:03.471Z,6604.00
2023-03-28T08:52:03.170Z,6904.00
2023-03-28T08:53:03.105Z,7132.00
2023-03-28T08:54:03.093Z,7380.00
2023-03-28T08:55:03.086Z,7784.00
2023-03-28T08:56:03.067Z,8084.00
2023-03-28T08:57:03.116Z,7960.00
2023-03-28T08:58:03.051Z,8132.00
2023-03-28T08:59:03.044Z,8288.00
2023-03-28T09:00:03.040Z,8280.00
2023-03-28T09:01:03.430Z,8468.00
2023-03-28T09:02:03.057Z,8480.00
2023-03-28T09:03:03.083Z,8436.00
2023-03-28T09:04:03.265Z,8396.00
2023-03-28T09:05:17.864Z,8544.00
2023-03-28T09:06:03.032Z,8556.00
2023-03-28T09:07:02.966Z,8592.00
2023-03-28T09:08:02.936Z,8516.00
2023-03-28T09:09:02.933Z,8872.00
2023-03-28T09:10:02.920Z,9000.00
2023-03-28T09:11:02.995Z,8920.00
2023-03-28T09:12:02.935Z,9156.00
2023-03-28T09:13:02.890Z,9504.00
2023-03-28T09:14:02.867Z,9880.00
2023-03-28T09:15:02.864Z,10364.00
2023-03-28T09:16:02.929Z,10908.00
2023-03-28T09:17:03.021Z,11464.00
2023-03-28T09:18:02.877Z,11460.00
2023-03-28T09:19:02.831Z,11576.00
2023-03-28T09:20:02.837Z,11640.00
2023-03-28T09:21:03.010Z,11268.00
2023-03-28T09:22:13.107Z,10896.00
2023-03-28T09:23:02.774Z,9564.00
2023-03-28T09:24:02.779Z,8716.00
2023-03-28T09:25:02.753Z,8312.00
2023-03-28T09:26:02.745Z,8672.00
2023-03-28T09:27:02.731Z,9744.00
2023-03-28T09:28:02.757Z,11276.00
2023-03-28T09:29:02.702Z,11796.00
2023-03-28T09:30:02.701Z,11368.00
2023-03-28T09:31:03.207Z,11756.00
2023-03-28T09:32:02.728Z,12608.00
2023-03-28T09:33:02.777Z,13540.00
2023-03-28T09:34:02.678Z,14144.00
2023-03-28T09:35:02.660Z,14276.00
2023-03-28T09:36:02.677Z,14312.00
2023-03-28T09:37:02.624Z,14104.00
2023-03-28T09:38:02.612Z,14024.00
2023-03-28T09:39:02.586Z,13936.00
2023-03-28T09:40:02.608Z,14076.00
2023-03-28T09:41:02.966Z,12932.00
2023-03-28T09:42:02.558Z,12428.00
2023-03-28T09:43:02.544Z,12164.00
2023-03-28T09:44:02.544Z,10592.00
2023-03-28T09:45:02.532Z,10064.00
2023-03-28T09:46:02.583Z,9772.00
2023-03-28T09:47:02.501Z,10116.00
2023-03-28T09:48:02.595Z,9532.00
2023-03-28T09:49:02.599Z,9500.00
2023-03-28T09:50:13.069Z,10964.00
2023-03-28T09:51:02.827Z,12164.00
2023-03-28T09:52:02.477Z,10768.00
2023-03-28T09:53:02.434Z,10412.00
2023-03-28T09:54:02.433Z,10620.00
2023-03-28T09:55:02.411Z,10548.00
2023-03-28T09:56:04.875Z,9616.00
2023-03-28T09:57:02.460Z,9220.00
2023-03-28T09:58:02.483Z,7996.00
2023-03-28T09:59:02.384Z,7276.00
2023-03-28T10:00:02.361Z,7488.00
2023-03-28T10:01:02.697Z,7832.00
2023-03-28T10:02:02.516Z,8352.00
2023-03-28T10:03:02.380Z,9008.00
2023-03-28T10:04:02.397Z,9932.00
2023-03-28T10:05:04.762Z,11392.00
2023-03-28T10:06:02.342Z,12768.00
2023-03-28T10:07:02.280Z,14360.00
2023-03-28T10:08:02.298Z,14668.00
2023-03-28T10:09:02.300Z,13932.00
2023-03-28T10:10:02.335Z,13616.00
2023-03-28T10:11:02.449Z,14220.00
2023-03-28T10:12:02.238Z,13044.00
2023-03-28T10:13:02.258Z,14352.00
2023-03-28T10:14:02.214Z,17984.00
2023-03-28T10:15:02.191Z,16736.00
2023-03-28T10:16:02.233Z,15336.00
2023-03-28T10:17:02.212Z,14400.00
2023-03-28T10:18:02.337Z,15512.00
2023-03-28T10:19:02.157Z,15312.00
2023-03-28T10:20:02.146Z,13088.00
2023-03-28T10:21:02.195Z,14060.00
2023-03-28T10:22:02.123Z,17984.00
2023-03-28T10:23:04.017Z,17472.00
2023-03-28T10:24:02.100Z,14984.00
2023-03-28T10:25:02.080Z,18560.00
2023-03-28T10:26:02.093Z,29472.00
2023-03-28T10:27:02.100Z,32032.00
2023-03-28T10:28:02.075Z,15064.00
2023-03-28T10:29:04.238Z,12472.00
2023-03-28T10:30:02.039Z,12200.00
2023-03-28T10:31:02.285Z,12136.00
2023-03-28T10:32:02.010Z,12848.00
2023-03-28T10:33:02.062Z,13428.00
2023-03-28T10:34:01.982Z,13220.00
2023-03-28T10:35:01.991Z,12356.00
2023-03-28T10:36:02.062Z,12000.00
2023-03-28T10:37:01.950Z,11284.00
2023-03-28T10:38:01.973Z,11388.00
2023-03-28T10:39:01.937Z,12224.00
2023-03-28T10:40:01.973Z,13788.00
2023-03-28T10:41:02.151Z,15080.00
2023-03-28T10:42:01.901Z,13980.00
2023-03-28T10:43:01.918Z,34464.00
2023-03-28T10:44:01.884Z,14332.00
2023-03-28T10:45:01.860Z,43808.00
2023-03-28T10:46:01.887Z,45696.00
2023-03-28T10:47:01.847Z,50048.00
2023-03-28T10:48:01.878Z,52640.00
2023-03-28T10:49:01.843Z,52736.00
2023-03-28T10:50:01.809Z,50112.00
2023-03-28T10:51:01.996Z,56256.00
2023-03-28T10:52:01.796Z,37728.00
2023-03-28T10:53:01.792Z,46944.00
2023-03-28T10:54:01.761Z,38848.00
2023-03-28T10:55:01.754Z,46688.00
2023-03-28T10:56:01.769Z,12164.00
2023-03-28T10:57:01.770Z,14460.00
2023-03-28T10:58:01.715Z,38720.00
2023-03-28T10:59:01.727Z,20288.00
2023-03-28T11:00:01.695Z,15524.00
2023-03-28T11:01:01.968Z,13724.00
2023-03-28T11:02:01.747Z,12124.00
2023-03-28T11:03:01.754Z,11720.00
2023-03-28T11:04:01.802Z,13180.00
2023-03-28T11:05:01.667Z,13476.00
2023-03-28T11:06:09.522Z,13500.00
2023-03-28T11:07:01.620Z,13084.00
2023-03-28T11:08:01.611Z,11532.00
2023-03-28T11:09:01.595Z,13992.00
2023-03-28T11:10:01.609Z,14332.00
2023-03-28T11:11:01.765Z,16420.00
2023-03-28T11:12:01.632Z,17952.00
2023-03-28T11:13:04.233Z,14752.00
2023-03-28T11:14:01.546Z,15028.00
2023-03-28T11:15:01.534Z,15508.00
2023-03-28T11:16:01.549Z,16124.00
2023-03-28T11:17:01.509Z,16440.00
2023-03-28T11:18:01.576Z,16208.00
2023-03-28T11:19:01.483Z,15808.00
2023-03-28T11:20:01.473Z,18144.00
2023-03-28T11:21:01.705Z,27296.00
2023-03-28T11:22:01.466Z,20992.00
2023-03-28T11:23:06.265Z,18368.00
2023-03-28T11:24:01.459Z,15688.00
2023-03-28T11:25:01.416Z,13848.00
2023-03-28T11:26:01.430Z,14480.00
2023-03-28T11:27:12.514Z,14608.00
2023-03-28T11:28:01.426Z,14424.00
2023-03-28T11:29:01.378Z,15572.00
2023-03-28T11:30:01.385Z,17792.00
2023-03-28T11:31:01.547Z,20928.00
2023-03-28T11:32:01.362Z,27200.00
2023-03-28T11:33:01.431Z,21568.00
2023-03-28T11:34:01.335Z,44416.00
2023-03-28T11:35:01.319Z,39104.00
2023-03-28T11:36:01.368Z,31456.00
2023-03-28T11:37:01.281Z,18432.00
2023-03-28T11:38:01.273Z,15568.00
2023-03-28T11:39:01.296Z,13836.00
2023-03-28T11:40:01.271Z,13436.00
2023-03-28T11:41:01.461Z,14184.00
2023-03-28T11:42:01.229Z,14532.00
2023-03-28T11:43:01.218Z,14512.00
2023-03-28T11:44:01.230Z,15272.00
2023-03-28T11:45:01.208Z,16204.00
2023-03-28T11:46:01.230Z,17280.00
2023-03-28T11:47:01.172Z,20640.00
2023-03-28T11:48:01.228Z,36672.00
2023-03-28T11:49:01.168Z,32960.00
2023-03-28T11:50:01.149Z,43072.00
2023-03-28T11:51:01.219Z,34496.00
2023-03-28T11:52:01.153Z,48160.00
2023-03-28T11:53:01.100Z,47968.00
2023-03-28T11:54:01.123Z,48224.00
2023-03-28T11:55:01.088Z,41792.00
2023-03-28T11:56:01.365Z,37344.00
2023-03-28T11:57:01.085Z,39616.00
2023-03-28T11:58:01.052Z,33344.00
2023-03-28T11:59:01.048Z,31840.00
2023-03-28T12:00:01.058Z,29472.00
2023-03-28T12:01:01.120Z,25760.00
2023-03-28T12:02:01.019Z,22720.00
2023-03-28T12:03:01.148Z,27680.00
2023-03-28T12:04:01.053Z,28000.00
2023-03-28T12:05:01.005Z,29856.00
2023-03-28T12:06:04.961Z,29312.00
2023-03-28T12:07:03.237Z,32736.00
2023-03-28T12:08:00.934Z,31360.00
2023-03-28T12:09:00.928Z,31168.00
2023-03-28T12:10:00.958Z,29152.00
2023-03-28T12:11:01.146Z,24960.00
2023-03-28T12:12:00.899Z,22464.00
2023-03-28T12:13:00.884Z,21984.00
2023-03-28T12:14:11.579Z,21728.00
2023-03-28T12:15:00.865Z,23008.00
2023-03-28T12:16:00.881Z,24000.00
2023-03-28T12:17:00.877Z,23392.00
2023-03-28T12:18:00.852Z,24608.00
2023-03-28T12:19:00.819Z,24064.00
2023-03-28T12:20:00.832Z,22880.00
2023-03-28T12:21:01.202Z,20992.00
2023-03-28T12:22:00.781Z,24640.00
2023-03-28T12:23:00.771Z,28352.00
2023-03-28T12:24:00.762Z,26080.00
2023-03-28T12:25:00.760Z,29056.00
2023-03-28T12:26:00.734Z,32416.00
2023-03-28T12:27:00.751Z,34208.00
2023-03-28T12:28:00.752Z,33664.00
2023-03-28T12:29:00.708Z,34368.00